Time;durP1;ratioP1;P1;durP2;ratioP2;P2;SDS_P1;SDS_P2;PMS_P1;PMS_P2;Temp;Humidity;BMP_temperature;BMP_pressure;BME280_temperature;BME280_humidity;BME280_pressure;Samples;Min_cycle;Max_cycle;Signal;HPM_P1;HPM_P2
2021/10/09 00:01:48;;;;;;;24.55;14.25;;;;;;;4.76;86.18;91305.47;5038362;28;20035;-88
2021/10/09 00:04:14;;;;;;;25.17;13.63;;;;;;;4.69;86.47;91295.50;5054854;28;20032;-87
2021/10/09 00:06:39;;;;;;;24.90;13.20;;;;;;;4.62;86.60;91299.50;5038090;28;20478;-87
2021/10/09 00:09:05;;;;;;;27.30;15.00;;;;;;;4.88;85.76;91295.47;5038525;28;20032;-88
2021/10/09 00:11:36;;;;;;;24.05;13.75;;;;;;;4.67;85.90;91302.00;5038374;28;20052;-87
2021/10/09 00:14:01;;;;;;;25.02;13.55;;;;;;;4.53;86.09;91297.56;5023318;28;20029;-87
2021/10/09 00:16:27;;;;;;;25.55;14.10;;;;;;;4.54;87.19;91293.91;5038533;28;20025;-87
2021/10/09 00:18:52;;;;;;;27.70;14.70;;;;;;;4.62;86.82;91297.66;5038108;28;20031;-88
2021/10/09 00:21:18;;;;;;;26.63;13.93;;;;;;;4.51;86.26;91298.88;5021636;28;20028;-87
2021/10/09 00:23:43;;;;;;;28.25;15.65;;;;;;;4.57;86.49;91297.00;5038085;28;20029;-87
2021/10/09 00:26:08;;;;;;;22.67;13.77;;;;;;;4.43;86.93;91296.94;5038074;28;20056;-86
2021/10/09 00:28:34;;;;;;;26.52;14.80;;;;;;;4.49;87.36;91290.66;5038111;28;20027;-87
2021/10/09 00:30:59;;;;;;;26.45;13.90;;;;;;;4.39;87.62;91301.91;5021439;28;20028;-87
2021/10/09 00:33:25;;;;;;;22.40;13.05;;;;;;;4.43;86.87;91299.53;5037695;28;20501;-88
2021/10/09 00:35:50;;;;;;;28.48;14.25;;;;;;;4.39;87.49;91303.72;5054446;28;20398;-87
2021/10/09 00:38:15;;;;;;;26.98;13.70;;;;;;;4.39;86.65;91303.72;5072205;28;20020;-87
2021/10/09 00:40:41;;;;;;;25.25;14.00;;;;;;;4.43;86.67;91302.09;5038243;28;20027;-88
2021/10/09 00:43:06;;;;;;;24.30;12.45;;;;;;;4.43;86.21;91292.53;5035219;23;20032;-91
2021/10/09 00:45:32;;;;;;;22.77;12.30;;;;;;;4.23;86.61;91303.16;5017878;28;20044;-90
2021/10/09 00:47:57;;;;;;;21.00;12.43;;;;;;;4.32;86.09;91302.25;5001522;28;20032;-90
2021/10/09 00:50:23;;;;;;;23.13;12.40;;;;;;;4.15;86.99;91299.38;5001908;28;20035;-90
2021/10/09 00:52:48;;;;;;;19.27;11.73;;;;;;;4.03;86.86;91299.03;5034022;28;20469;-90
2021/10/09 00:55:13;;;;;;;22.02;12.38;;;;;;;4.02;86.96;91294.91;5017875;28;20025;-91
2021/10/09 00:57:40;;;;;;;23.08;12.75;;;;;;;4.08;87.34;91298.97;5051050;28;20020;-90
2021/10/09 01:00:06;;;;;;;25.95;13.82;;;;;;;4.14;87.14;91292.69;5035011;28;20036;-91
2021/10/09 01:02:36;;;;;;;27.83;14.57;;;;;;;4.02;88.10;91297.50;5017596;28;20036;-91
2021/10/09 01:05:01;;;;;;;29.20;14.05;;;;;;;3.97;87.56;91295.00;5035821;28;20048;-93
2021/10/09 01:07:27;;;;;;;24.73;13.48;;;;;;;3.96;87.48;91290.88;5052763;28;20021;-91
2021/10/09 01:09:52;;;;;;;22.38;13.45;;;;;;;3.93;88.46;91288.84;5054916;28;20364;-90
2021/10/09 01:12:18;;;;;;;26.60;14.05;;;;;;;3.89;88.27;91288.66;5020685;28;20029;-90
2021/10/09 01:14:43;;;;;;;29.88;14.25;;;;;;;4.00;88.61;91284.13;5053872;28;20498;-91
2021/10/09 01:17:10;;;;;;;23.60;13.18;;;;;;;3.90;88.38;91284.25;5054068;28;20479;-88
2021/10/09 01:19:36;;;;;;;25.73;13.23;;;;;;;3.99;88.99;91280.78;5017429;28;20021;-91
2021/10/09 01:22:01;;;;;;;25.23;13.95;;;;;;;4.05;88.03;91284.03;5017505;28;20091;-91
2021/10/09 01:24:27;;;;;;;25.10;14.35;;;;;;;3.98;87.94;91292.13;5000820;28;20032;-91
2021/10/09 01:26:52;;;;;;;25.77;13.68;;;;;;;3.84;88.32;91284.31;5000965;28;20475;-91
2021/10/09 01:29:18;;;;;;;26.25;13.73;;;;;;;3.86;88.22;91278.13;5017706;28;20083;-92
2021/10/09 01:31:43;;;;;;;26.80;13.80;;;;;;;3.73;88.36;91285.47;5017581;28;20585;-91
2021/10/09 01:34:08;;;;;;;27.70;13.43;;;;;;;3.74;88.05;91281.84;5000965;28;20028;-90
2021/10/09 01:36:36;;;;;;;30.10;15.75;;;;;;;3.87;89.06;91279.66;5000932;28;20033;-91
2021/10/09 01:39:01;;;;;;;29.92;15.65;;;;;;;3.91;89.43;91280.63;5001049;28;20083;-91
2021/10/09 01:41:27;;;;;;;26.35;15.32;;;;;;;3.86;88.87;91283.28;5017188;28;20033;-91
2021/10/09 01:43:52;;;;;;;30.35;15.77;;;;;;;3.89;89.21;91277.53;5017075;28;20029;-90
2021/10/09 01:46:18;;;;;;;30.15;16.48;;;;;;;4.00;88.93;91279.72;5001218;28;20037;-91
2021/10/09 01:48:43;;;;;;;26.90;15.27;;;;;;;4.03;89.83;91284.34;5000550;28;20029;-90
2021/10/09 01:51:09;;;;;;;30.05;15.40;;;;;;;4.00;89.46;91284.88;5000566;28;20022;-89
2021/10/09 01:53:35;;;;;;;30.98;16.55;;;;;;;4.01;89.42;91283.84;5016882;28;20026;-91
2021/10/09 01:56:00;;;;;;;33.03;16.67;;;;;;;3.93;89.89;91281.88;5010048;28;20029;-90
2021/10/09 01:58:26;;;;;;;29.67;16.95;;;;;;;4.04;90.46;91279.94;5013219;28;20045;-91
2021/10/09 02:00:51;;;;;;;33.38;16.77;;;;;;;4.19;89.26;91277.13;5036618;28;20052;-91
2021/10/09 02:03:19;;;;;;;28.55;15.40;;;;;;;4.21;89.15;91277.63;5020009;28;20020;-91
2021/10/09 02:05:45;;;;;;;28.60;15.52;;;;;;;4.05;90.06;91273.72;5020195;28;20028;-91
2021/10/09 02:08:10;;;;;;;31.23;16.98;;;;;;;4.19;89.19;91279.72;5036373;28;20021;-89
2021/10/09 02:10:44;;;;;;;30.85;17.13;;;;;;;4.13;89.73;91278.25;5036187;28;20398;-90
2021/10/09 02:13:11;;;;;;;32.55;15.98;;;;;;;4.19;89.17;91277.13;5020660;28;20078;-90
2021/10/09 02:15:45;;;;;;;32.90;16.65;;;;;;;3.99;89.94;91287.72;5019635;28;20040;-91
2021/10/09 02:26:12;;;;;;;30.58;16.23;;;;;;;4.00;89.52;91278.97;5019099;28;20036;-91
2021/10/09 02:28:38;;;;;;;34.20;17.45;;;;;;;4.02;90.40;91271.69;4999862;28;20025;-91
2021/10/09 02:31:03;;;;;;;29.63;14.70;;;;;;;3.98;90.27;91275.88;5015877;28;20026;-91
2021/10/09 02:33:29;;;;;;;26.27;15.05;;;;;;;3.90;89.74;91281.69;4983291;28;20030;-90
2021/10/09 02:35:54;;;;;;;28.15;16.02;;;;;;;3.83;89.95;91284.59;4983431;28;20483;-91
2021/10/09 02:38:19;;;;;;;27.10;15.43;;;;;;;3.92;90.51;91277.78;4999556;28;20083;-91
2021/10/09 02:40:45;;;;;;;31.95;16.25;;;;;;;3.87;89.79;91283.00;4999531;28;20032;-91
2021/10/09 02:43:11;;;;;;;29.13;15.52;;;;;;;3.74;89.88;91287.00;4999362;28;20018;-90
2021/10/09 02:45:36;;;;;;;26.85;14.75;;;;;;;3.73;89.96;91285.47;4999877;28;20028;-91
2021/10/09 02:48:04;;;;;;;29.83;15.73;;;;;;;3.69;90.12;91276.78;4983233;28;20025;-91
2021/10/09 02:50:29;;;;;;;30.45;14.77;;;;;;;3.64;90.51;91284.56;5033537;28;20029;-90
2021/10/09 02:52:55;;;;;;;28.58;15.05;;;;;;;3.64;90.75;91286.38;4999230;28;20507;-91
2021/10/09 02:55:21;;;;;;;26.95;15.38;;;;;;;3.73;90.28;91279.56;4983193;28;20032;-91
2021/10/09 02:57:46;;;;;;;29.08;14.60;;;;;;;3.76;89.36;91284.94;4983009;28;20487;-91
2021/10/09 03:00:13;;;;;;;29.27;15.48;;;;;;;3.73;89.08;91282.91;4999153;28;20403;-91
2021/10/09 03:02:38;;;;;;;26.15;14.55;;;;;;;3.69;89.51;91289.66;4983680;28;20025;-91
2021/10/09 03:05:04;;;;;;;26.70;14.40;;;;;;;3.64;89.04;91289.72;5000523;28;20376;-91
2021/10/09 03:07:29;;;;;;;26.38;14.88;;;;;;;3.55;88.98;91283.63;5000707;28;20380;-91
2021/10/09 03:09:55;;;;;;;24.92;13.98;;;;;;;3.54;88.91;91282.13;4984623;28;20028;-90
2021/10/09 03:12:20;;;;;;;26.13;14.15;;;;;;;3.49;89.11;91284.72;4985188;28;20017;-90
2021/10/09 03:14:46;;;;;;;26.38;13.45;;;;;;;3.40;89.36;91278.66;5001389;28;20036;-90
2021/10/09 03:17:11;;;;;;;22.02;12.40;;;;;;;3.35;88.79;91280.25;5035530;28;20395;-90
2021/10/09 03:19:36;;;;;;;25.45;12.60;;;;;;;3.30;88.70;91277.72;5019580;28;20013;-91
2021/10/09 03:22:02;;;;;;;27.02;12.75;;;;;;;3.18;89.06;91279.94;5014425;28;20037;-91
2021/10/09 03:24:27;;;;;;;22.95;12.73;;;;;;;3.26;88.74;91276.75;5051705;28;20072;-91
2021/10/09 03:26:53;;;;;;;22.65;12.93;;;;;;;3.15;89.56;91280.47;5051229;28;20025;-91
2021/10/09 03:29:18;;;;;;;26.35;13.80;;;;;;;2.95;89.78;91280.66;5051526;28;20368;-91
2021/10/09 03:31:44;;;;;;;24.42;13.30;;;;;;;3.15;88.29;91284.88;5051524;28;20043;-91
2021/10/09 03:34:09;;;;;;;24.45;13.82;;;;;;;2.95;88.64;91273.72;5052716;28;20107;-88
2021/10/09 03:36:35;;;;;;;25.50;13.10;;;;;;;2.87;89.20;91274.31;5034830;28;20036;-90
2021/10/09 03:39:01;;;;;;;28.17;13.45;;;;;;;2.86;89.30;91270.97;5034662;28;20025;-91
2021/10/09 03:41:26;;;;;;;27.02;12.60;;;;;;;2.99;90.26;91279.09;5018320;28;20035;-90
2021/10/09 03:43:52;;;;;;;25.67;12.93;;;;;;;2.99;89.88;91277.28;5051218;28;20025;-91
2021/10/09 03:46:26;;;;;;;24.85;14.02;;;;;;;2.91;91.20;91275.28;5051251;28;20493;-91
2021/10/09 03:54:01;;;;;;;26.73;13.10;;;;;;;2.97;89.51;91279.38;5037386;28;20032;-91
2021/10/09 03:56:26;;;;;;;26.67;13.52;;;;;;;2.98;89.64;91278.31;5018286;28;20489;-91
2021/10/09 03:58:52;;;;;;;28.50;12.95;;;;;;;3.16;89.32;91282.00;5017913;28;20115;-91
2021/10/09 04:01:17;;;;;;;25.40;12.27;;;;;;;3.09;89.78;91274.59;5050953;28;20040;-91
2021/10/09 04:03:43;;;;;;;23.95;13.38;;;;;;;3.16;90.02;91276.84;5034548;28;20013;-91
2021/10/09 04:06:08;;;;;;;26.75;13.32;;;;;;;3.30;89.62;91275.16;5034461;28;20029;-91
2021/10/09 04:08:33;;;;;;;22.55;12.20;;;;;;;3.19;90.73;91276.31;5051332;28;20024;-91
2021/10/09 04:10:59;;;;;;;27.73;13.68;;;;;;;3.11;91.13;91275.09;5017994;28;20044;-90
2021/10/09 04:13:24;;;;;;;23.77;13.10;;;;;;;3.29;90.75;91276.19;5033848;28;20025;-91
2021/10/09 04:15:50;;;;;;;21.45;12.07;;;;;;;3.38;89.64;91278.16;5051195;28;20036;-90
2021/10/09 04:18:15;;;;;;;26.67;15.05;;;;;;;3.46;90.63;91264.66;5034286;28;20024;-90
2021/10/09 04:20:41;;;;;;;25.13;13.32;;;;;;;3.52;91.02;91269.50;5029352;28;20446;-91
2021/10/09 04:23:06;;;;;;;31.77;14.75;;;;;;;3.62;90.72;91266.03;5030936;28;20092;-90
2021/10/09 04:25:32;;;;;;;25.10;15.05;;;;;;;3.58;91.28;91272.78;4998268;28;20025;-90
2021/10/09 04:27:57;;;;;;;30.30;14.85;;;;;;;3.55;91.23;91268.19;4998063;28;20029;-91
2021/10/09 04:30:23;;;;;;;24.92;14.68;;;;;;;3.76;90.79;91274.63;4981988;28;20025;-90
2021/10/09 04:32:48;;;;;;;28.58;13.85;;;;;;;3.92;90.06;91271.84;4997780;28;20022;-90
2021/10/09 04:35:13;;;;;;;29.88;14.50;;;;;;;3.91;90.12;91272.88;4998241;28;20033;-90
2021/10/09 04:37:39;;;;;;;29.55;15.18;;;;;;;3.79;90.51;91268.91;5032108;28;20029;-90
2021/10/09 04:40:05;;;;;;;26.05;13.90;;;;;;;3.81;90.57;91269.38;5002132;28;20044;-91
2021/10/09 04:42:30;;;;;;;23.45;13.65;;;;;;;3.90;90.24;91274.69;4985619;28;20399;-90
2021/10/09 04:44:56;;;;;;;26.65;14.23;;;;;;;4.03;89.88;91278.41;5001841;28;20021;-91
2021/10/09 04:47:21;;;;;;;28.40;15.25;;;;;;;4.00;90.08;91273.81;4985755;28;20032;-90
2021/10/09 04:49:47;;;;;;;28.67;15.20;;;;;;;3.96;90.67;91278.00;5001934;28;20037;-91
2021/10/09 04:52:12;;;;;;;28.33;13.82;;;;;;;4.13;89.43;91274.91;5001871;28;20144;-91
2021/10/09 04:54:37;;;;;;;28.35;13.70;;;;;;;4.10;89.42;91276.25;5001727;28;20495;-90
2021/10/09 04:57:03;;;;;;;27.33;14.20;;;;;;;4.13;89.38;91278.25;5001590;28;20037;-91
2021/10/09 04:59:28;;;;;;;22.50;13.65;;;;;;;4.17;89.25;91274.09;5001930;28;20392;-90
2021/10/09 05:01:54;;;;;;;30.25;14.90;;;;;;;4.09;89.57;91272.13;4985478;28;20021;-91
2021/10/09 05:04:19;;;;;;;27.15;13.57;;;;;;;4.01;89.93;91270.19;5001556;28;20025;-91
2021/10/09 05:06:44;;;;;;;27.00;14.07;;;;;;;4.13;89.75;91273.09;4985526;28;20026;-90
2021/10/09 05:09:10;;;;;;;27.55;14.35;;;;;;;4.30;88.72;91272.59;5001526;28;20395;-90
2021/10/09 05:11:35;;;;;;;26.80;14.50;;;;;;;4.24;88.96;91279.66;5017606;28;20380;-91
2021/10/09 05:14:01;;;;;;;26.65;15.15;;;;;;;4.11;89.30;91277.78;4985069;28;20029;-90
2021/10/09 05:16:26;;;;;;;25.48;14.00;;;;;;;4.07;89.35;91276.81;4985301;28;20036;-90
2021/10/09 05:18:51;;;;;;;29.45;14.35;;;;;;;4.12;89.55;91276.72;5002749;28;20029;-91
2021/10/09 05:21:17;;;;;;;30.90;13.98;;;;;;;4.18;89.42;91274.84;5029216;28;20025;-91
2021/10/09 05:23:42;;;;;;;24.13;14.23;;;;;;;4.04;90.11;91279.94;5036492;28;20024;-90
2021/10/09 05:26:08;;;;;;;25.55;13.98;;;;;;;4.09;90.18;91285.00;5005076;28;20025;-91
2021/10/09 05:28:42;;;;;;;30.65;15.27;;;;;;;4.21;89.48;91280.22;5037390;28;20036;-90
2021/10/09 05:31:10;;;;;;;31.33;15.57;;;;;;;4.28;89.06;91279.88;5023571;28;20021;-90
2021/10/09 05:36:01;;;;;;;26.65;14.07;;;;;;;4.23;89.37;91291.00;5020945;28;20028;-90
2021/10/09 05:38:26;;;;;;;27.77;14.77;;;;;;;4.16;89.71;91290.59;5037261;28;20028;-89
2021/10/09 05:40:51;;;;;;;27.17;14.50;;;;;;;4.28;88.55;91285.78;5004109;28;20070;-91
2021/10/09 05:43:18;;;;;;;34.72;14.43;;;;;;;4.27;88.88;91294.56;5020692;28;20017;-91
2021/10/09 05:45:43;;;;;;;26.90;13.90;;;;;;;4.18;89.84;91296.25;5021052;28;20021;-91
2021/10/09 05:48:09;;;;;;;26.63;14.10;;;;;;;4.13;89.50;91298.88;5020595;28;20044;-90
2021/10/09 05:50:51;;;;;;;28.85;15.50;;;;;;;4.25;88.89;91299.25;5020232;28;20112;-90
2021/10/09 05:53:42;;;;;;;26.02;13.85;;;;;;;4.23;88.89;91303.91;5024368;28;20048;-91
2021/10/09 05:56:30;;;;;;;24.17;13.77;;;;;;;4.25;88.89;91307.00;5027220;28;20052;-91
2021/10/09 06:02:11;;;;;;;36.07;14.83;;;;;;;4.23;88.64;91303.16;5039268;28;20071;-91
2021/10/09 06:32:24;;;;;;;28.02;14.50;;;;;;;4.42;87.42;91326.38;5025030;28;20029;-90
2021/10/09 06:38:23;;;;;;;27.07;13.50;;;;;;;4.39;87.32;91338.03;5039097;28;20044;-91
2021/10/09 06:46:05;;;;;;;24.95;13.60;;;;;;;4.08;87.99;91337.66;5020903;28;20290;-87
2021/10/09 06:59:31;;;;;;;25.20;13.43;;;;;;;4.47;87.41;91354.69;5019557;28;20036;-88
2021/10/09 07:01:57;;;;;;;25.48;13.98;;;;;;;4.67;87.19;91359.56;5015595;28;20467;-90
2021/10/09 07:04:22;;;;;;;25.42;14.23;;;;;;;4.47;87.12;91355.44;5000169;28;20033;-88
2021/10/09 07:06:50;;;;;;;25.50;13.98;;;;;;;4.39;87.37;91358.66;5000145;28;20025;-87
2021/10/09 07:09:15;;;;;;;26.63;14.65;;;;;;;4.57;87.50;91364.88;5000242;28;20021;-88
2021/10/09 07:11:41;;;;;;;24.63;15.10;;;;;;;4.43;86.80;91358.88;5016485;28;20472;-91
2021/10/09 07:14:07;;;;;;;28.52;14.60;;;;;;;4.65;87.22;91366.81;4999842;28;20434;-87
2021/10/09 07:16:33;;;;;;;25.67;13.60;;;;;;;4.56;85.31;91363.34;4983561;28;20376;-87
2021/10/09 07:18:58;;;;;;;24.67;13.50;;;;;;;4.65;86.22;91369.41;5042719;28;20060;-92
2021/10/09 07:21:24;;;;;;;24.10;13.38;;;;;;;4.71;86.95;91365.69;5061362;28;20013;-93
2021/10/09 07:23:49;;;;;;;25.35;14.70;;;;;;;4.77;85.32;91374.91;5036837;28;20052;-87
2021/10/09 07:26:14;;;;;;;25.45;14.27;;;;;;;4.66;86.36;91373.50;5035403;28;20025;-87
2021/10/09 07:28:40;;;;;;;27.30;14.70;;;;;;;4.61;85.79;91381.34;5019126;28;20486;-88
2021/10/09 07:31:05;;;;;;;29.27;13.88;;;;;;;4.69;86.85;91378.13;5035264;28;20032;-87
2021/10/09 07:33:31;;;;;;;27.23;14.57;;;;;;;4.93;84.97;91387.59;5018786;28;20033;-88
2021/10/09 07:35:56;;;;;;;23.15;14.25;;;;;;;4.97;85.74;91384.16;5036042;28;20036;-89
2021/10/09 07:38:22;;;;;;;27.50;14.35;;;;;;;5.01;86.07;91398.03;5035260;28;20025;-87
2021/10/09 07:40:47;;;;;;;24.17;14.45;;;;;;;4.99;84.57;91383.88;5035253;28;20025;-87
2021/10/09 07:43:13;;;;;;;22.20;12.73;;;;;;;5.11;85.34;91394.53;5035024;28;20024;-87
2021/10/09 07:45:38;;;;;;;24.77;12.60;;;;;;;5.04;83.87;91400.06;5035125;28;20052;-87
2021/10/09 07:48:04;;;;;;;24.80;12.85;;;;;;;5.06;83.24;91397.22;5053389;28;20447;-87
2021/10/09 07:50:29;;;;;;;25.20;14.15;;;;;;;5.15;84.31;91394.75;5053154;28;20486;-87
2021/10/09 07:52:55;;;;;;;27.50;12.75;;;;;;;5.21;84.64;91399.56;5035205;28;20398;-87
2021/10/09 07:55:20;;;;;;;23.02;13.05;;;;;;;5.34;82.56;91399.88;5035285;28;20501;-87
2021/10/09 07:57:45;;;;;;;25.27;12.77;;;;;;;5.26;83.81;91396.09;5018952;28;20491;-88
2021/10/09 08:00:11;;;;;;;22.55;13.63;;;;;;;5.35;84.61;91397.00;5063474;28;20483;-88
2021/10/09 08:02:37;;;;;;;24.77;12.95;;;;;;;5.21;84.29;91393.63;5029654;28;20029;-87
2021/10/09 08:05:05;;;;;;;23.38;13.30;;;;;;;5.12;83.91;91390.13;5017932;28;20036;-87
2021/10/09 08:07:31;;;;;;;24.58;13.45;;;;;;;5.28;82.96;91394.78;5034743;28;20055;-88
2021/10/09 08:09:57;;;;;;;23.20;13.13;;;;;;;5.44;83.16;91391.94;5034769;28;20483;-87
2021/10/09 08:12:22;;;;;;;23.75;12.75;;;;;;;5.50;82.47;91396.75;5035934;28;20029;-91
2021/10/09 08:14:48;;;;;;;21.77;12.77;;;;;;;5.84;83.31;91400.06;5054236;28;20039;-87
2021/10/09 08:17:13;;;;;;;19.90;12.65;;;;;;;5.86;83.69;91392.75;5051499;28;20021;-87
2021/10/09 08:19:39;;;;;;;21.48;12.35;;;;;;;5.82;82.49;91397.75;5028115;28;20025;-88
2021/10/09 08:22:08;;;;;;;20.15;12.05;;;;;;;6.00;82.76;91390.97;5004625;28;20025;-88
2021/10/09 08:24:44;;;;;;;22.10;13.07;;;;;;;6.00;82.56;91390.97;5019769;28;20398;-87
2021/10/09 08:35:32;;;;;;;21.05;11.88;;;;;;;6.00;81.46;91403.91;4998347;28;20042;-89
2021/10/09 08:40:42;;;;;;;22.67;11.50;;;;;;;5.93;81.53;91399.09;5039688;28;20036;-87
2021/10/09 08:43:07;;;;;;;19.23;11.55;;;;;;;5.94;80.33;91402.50;5035989;28;20025;-90
2021/10/09 08:45:33;;;;;;;21.67;11.75;;;;;;;6.12;80.66;91406.78;5034624;28;20040;-87
2021/10/09 08:47:58;;;;;;;19.50;12.00;;;;;;;6.39;79.33;91402.63;5018538;28;20036;-87
2021/10/09 08:50:24;;;;;;;20.95;11.48;;;;;;;6.41;79.02;91403.13;5021277;28;20029;-88
2021/10/09 08:53:08;;;;;;;21.83;11.43;;;;;;;6.50;79.89;91405.78;5019405;28;20066;-88
2021/10/09 08:55:35;;;;;;;20.20;11.77;;;;;;;6.64;80.13;91402.13;5035145;28;20029;-87
2021/10/09 08:58:05;;;;;;;16.55;11.18;;;;;;;6.83;79.28;91398.63;5023688;28;20039;-88
2021/10/09 09:00:45;;;;;;;20.42;10.85;;;;;;;6.67;77.38;91406.72;5019492;28;20031;-89
2021/10/09 09:03:15;;;;;;;21.05;10.90;;;;;;;6.80;77.55;91404.38;5034820;28;20017;-86
2021/10/09 09:27:53;;;;;;;15.80;9.33;;;;;;;7.49;72.97;91386.72;5040988;28;20028;-88
2021/10/09 09:33:08;;;;;;;16.27;9.38;;;;;;;7.77;75.00;91391.72;5061789;28;20035;-94
2021/10/09 09:35:47;;;;;;;17.30;9.25;;;;;;;7.94;74.00;91384.03;5049176;28;20033;-94
2021/10/09 09:41:20;;;;;;;12.80;8.43;;;;;;;7.99;72.12;91391.69;5040802;28;20036;-87
2021/10/09 09:43:45;;;;;;;14.85;8.77;;;;;;;7.98;70.08;91389.38;5038439;28;20031;-87
2021/10/09 09:46:16;;;;;;;15.85;9.52;;;;;;;7.94;70.73;91391.81;5056742;28;20025;-89
2021/10/09 09:48:45;;;;;;;13.23;8.07;;;;;;;8.26;70.87;91395.13;5021970;28;20566;-88
2021/10/09 09:51:12;;;;;;;14.35;8.60;;;;;;;8.48;71.14;91395.06;5038715;28;20033;-88
2021/10/09 09:53:39;;;;;;;12.93;8.35;;;;;;;8.46;70.82;91389.41;5043284;28;20025;-89
2021/10/09 09:56:05;;;;;;;13.93;8.48;;;;;;;8.64;71.80;91394.63;5040173;28;20017;-87
2021/10/09 09:58:30;;;;;;;16.60;8.57;;;;;;;8.78;69.50;91395.25;5021487;28;20459;-88
2021/10/09 10:00:56;;;;;;;15.32;8.77;;;;;;;8.75;70.13;91388.06;5021074;28;20024;-89
2021/10/09 10:03:24;;;;;;;12.30;7.97;;;;;;;8.96;68.53;91389.00;5037775;28;20029;-87
2021/10/09 10:05:49;;;;;;;13.10;8.32;;;;;;;9.12;66.06;91393.72;5021058;28;20020;-87
2021/10/09 10:08:14;;;;;;;14.38;7.90;;;;;;;8.99;67.95;91385.78;5039480;28;20032;-88
2021/10/09 10:10:40;;;;;;;13.27;7.90;;;;;;;8.97;65.82;91387.16;5022099;28;20495;-87
2021/10/09 10:13:05;;;;;;;17.05;8.00;;;;;;;8.89;67.29;91388.69;5043014;28;20032;-87
2021/10/09 10:15:31;;;;;;;15.18;7.85;;;;;;;9.13;67.75;91384.88;5036075;28;20033;-90
2021/10/09 10:17:57;;;;;;;14.30;8.23;;;;;;;9.44;70.72;91387.28;5038471;28;20487;-88
2021/10/09 10:20:24;;;;;;;12.10;7.15;;;;;;;9.72;69.10;91387.69;5027619;28;20035;-89
2021/10/09 10:22:54;;;;;;;8.88;6.65;;;;;;;9.94;65.75;91386.69;5022151;28;20017;-88
2021/10/09 10:25:31;;;;;;;11.18;7.10;;;;;;;9.45;64.16;91386.97;5021921;28;20075;-87
2021/10/09 10:28:03;;;;;;;11.45;7.13;;;;;;;9.43;64.17;91386.50;5022341;28;20025;-88
2021/10/09 10:30:30;;;;;;;10.80;6.68;;;;;;;9.58;64.77;91390.47;5038170;28;20491;-87
2021/10/09 10:32:57;;;;;;;12.68;7.15;;;;;;;9.60;64.98;91397.97;5021621;28;20025;-88
2021/10/09 10:35:31;;;;;;;14.95;7.57;;;;;;;9.70;64.11;91397.63;5036925;28;20029;-87
2021/10/09 10:38:01;;;;;;;;;;;;;;;10.08;66.34;91389.84;5037209;28;20637;-87
2021/10/09 10:41:00;;;;;;;11.38;6.75;;;;;;;9.97;63.92;91392.03;5036414;28;19915;-87
2021/10/09 10:45:58;;;;;;;11.55;7.20;;;;;;;9.93;63.05;91393.75;5054263;28;20025;-88
2021/10/09 10:48:43;;;;;;;12.63;7.53;;;;;;;10.15;64.96;91399.78;5052987;28;20025;-88
2021/10/09 10:51:15;;;;;;;11.02;7.05;;;;;;;10.25;63.00;91402.84;5038095;28;20021;-87
2021/10/09 10:54:05;;;;;;;12.45;7.15;;;;;;;10.17;63.24;91405.44;5021431;28;20033;-88
2021/10/09 10:56:30;;;;;;;15.55;8.48;;;;;;;10.44;63.53;91404.28;5037857;28;20033;-88
2021/10/09 10:59:34;;;;;;;10.55;5.95;;;;;;;10.36;61.20;91395.44;5021447;28;20032;-89
2021/10/09 11:02:37;;;;;;;8.60;5.45;;;;;;;10.67;61.38;91399.53;5057719;28;20347;-88
2021/10/09 11:05:16;;;;;;;8.50;5.07;;;;;;;10.91;61.76;91396.31;5038264;28;20063;-88
2021/10/09 11:07:43;;;;;;;11.48;5.00;;;;;;;10.85;58.08;91392.38;5022986;28;20028;-88
2021/10/09 11:10:11;;;;;;;6.70;4.75;;;;;;;10.52;57.11;91393.03;5053484;28;20048;-88
2021/10/09 11:12:41;;;;;;;9.95;5.30;;;;;;;10.82;58.00;91401.63;5036524;28;20028;-88
2021/10/09 11:15:28;;;;;;;9.45;4.93;;;;;;;10.88;57.56;91399.56;5020269;28;20068;-88
2021/10/09 11:18:03;;;;;;;9.35;5.00;;;;;;;11.11;59.43;91395.56;5050361;28;20020;-92
2021/10/09 11:20:32;;;;;;;8.85;5.00;;;;;;;11.27;57.66;91387.16;5044063;28;20013;-93
2021/10/09 11:23:00;;;;;;;9.65;5.03;;;;;;;11.31;56.87;91393.25;5027501;28;20032;-88
2021/10/09 11:25:40;;;;;;;7.10;4.28;;;;;;;11.57;58.58;91406.09;5003997;28;20024;-88
2021/10/09 11:28:16;;;;;;;9.50;5.53;;;;;;;11.58;58.40;91407.59;5038031;28;20087;-88
2021/10/09 11:30:41;;;;;;;9.10;4.60;;;;;;;11.53;57.46;91410.44;5054069;28;20069;-92
2021/10/09 11:33:06;;;;;;;8.25;4.60;;;;;;;11.40;58.22;91401.78;5020445;28;20455;-88
2021/10/09 11:35:36;;;;;;;9.85;4.32;;;;;;;11.28;52.82;91406.97;5037666;28;20025;-89
2021/10/09 11:38:03;;;;;;;9.05;4.03;;;;;;;11.29;54.80;91406.63;5019356;28;20020;-87
2021/10/09 11:40:34;;;;;;;8.45;4.28;;;;;;;11.51;51.77;91402.16;5003410;28;20021;-88
2021/10/09 11:43:17;;;;;;;10.77;3.70;;;;;;;11.53;50.05;91397.38;5019750;28;20024;-88
2021/10/09 11:53:48;;;;;;;8.40;4.03;;;;;;;11.43;48.54;91391.47;5024201;28;20159;-88
2021/10/09 11:56:14;;;;;;;5.03;3.65;;;;;;;11.72;52.94;91395.78;5006593;28;20032;-87
2021/10/09 11:58:45;;;;;;;6.75;4.28;;;;;;;11.66;49.26;91389.28;5004359;28;20116;-88
2021/10/09 12:01:26;;;;;;;8.52;4.13;;;;;;;11.72;50.04;91392.41;5055476;28;20459;-87
2021/10/09 12:03:51;;;;;;;7.63;3.95;;;;;;;11.78;47.32;91393.75;5019131;28;20017;-89
2021/10/09 12:06:17;;;;;;;5.38;4.00;;;;;;;11.91;51.31;91384.91;5018914;28;20051;-88
2021/10/09 12:08:53;;;;;;;6.80;4.32;;;;;;;12.07;50.74;91381.63;5035880;28;20025;-88
2021/10/09 12:11:23;;;;;;;6.45;3.90;;;;;;;11.95;48.65;91369.34;5003077;28;20487;-87
2021/10/09 12:13:56;;;;;;;6.60;4.13;;;;;;;12.24;50.83;91381.44;5018871;28;20079;-88
2021/10/09 12:16:32;;;;;;;5.63;3.80;;;;;;;12.41;52.02;91376.00;5019183;28;20025;-89
2021/10/09 12:19:00;;;;;;;5.95;4.28;;;;;;;12.51;51.25;91379.25;5003375;28;20036;-88
2021/10/09 12:21:27;;;;;;;9.02;4.40;;;;;;;12.43;48.10;91378.28;5053184;28;20033;-88
2021/10/09 12:23:53;;;;;;;5.72;3.50;;;;;;;12.43;47.94;91371.19;5035283;28;20387;-88
2021/10/09 12:26:19;;;;;;;6.97;4.03;;;;;;;12.39;50.26;91380.03;5002330;28;20025;-87
2021/10/09 12:29:03;;;;;;;12.50;4.85;;;;;;;12.68;49.00;91379.00;5005262;28;20092;-90
2021/10/09 12:31:29;;;;;;;9.63;3.50;;;;;;;12.55;50.77;91377.53;5050202;28;20060;-88
2021/10/09 12:33:55;;;;;;;7.28;3.72;;;;;;;12.67;48.26;91374.88;5025424;28;20047;-91
2021/10/09 12:36:37;;;;;;;7.22;3.80;;;;;;;12.78;46.14;91370.72;5017473;28;20025;-88
2021/10/09 12:39:23;;;;;;;8.30;4.50;;;;;;;12.23;45.22;91366.84;5022907;28;20029;-88
2021/10/09 12:41:49;;;;;;;5.40;3.42;;;;;;;12.23;46.00;91363.50;5051135;28;20508;-88
2021/10/09 12:44:14;;;;;;;5.35;3.40;;;;;;;12.44;46.53;91364.91;5083820;23;20055;-91
2021/10/09 12:46:40;;;;;;;7.38;3.70;;;;;;;12.77;47.40;91371.06;5073567;28;20024;-90
2021/10/09 12:49:05;;;;;;;5.90;3.30;;;;;;;12.87;46.07;91371.38;5092105;28;20032;-92
2021/10/09 12:51:31;;;;;;;7.05;3.33;;;;;;;12.75;42.83;91371.38;5040559;28;20020;-90
2021/10/09 12:54:02;;;;;;;5.13;2.80;;;;;;;12.88;44.00;91372.88;5057663;28;20031;-91
2021/10/09 12:56:28;;;;;;;6.88;3.78;;;;;;;12.74;43.87;91362.03;5065537;28;20106;-92
2021/10/09 12:58:53;;;;;;;6.13;3.47;;;;;;;12.83;44.62;91373.13;5057082;28;20031;-91
2021/10/09 13:01:19;;;;;;;5.88;2.95;;;;;;;12.90;43.17;91370.72;5060035;28;20477;-91
2021/10/09 13:03:44;;;;;;;4.82;3.42;;;;;;;12.94;43.89;91370.06;5077863;28;20031;-90
2021/10/09 13:06:09;;;;;;;6.45;3.30;;;;;;;13.14;43.69;91363.88;5078041;28;20044;-89
2021/10/09 13:08:35;;;;;;;4.80;3.30;;;;;;;13.10;42.68;91369.00;5078199;28;20039;-91
2021/10/09 13:11:00;;;;;;;6.22;3.70;;;;;;;12.98;43.31;91368.31;5077525;28;20028;-90
2021/10/09 13:13:26;;;;;;;4.97;3.38;;;;;;;13.26;44.37;91361.25;5078551;28;20020;-91
2021/10/09 13:15:51;;;;;;;5.80;3.55;;;;;;;13.28;45.13;91364.28;5077656;28;20482;-91
2021/10/09 13:18:17;;;;;;;6.53;3.38;;;;;;;13.51;44.44;91361.16;5077572;28;20074;-91
2021/10/09 13:20:42;;;;;;;6.10;3.25;;;;;;;13.67;45.26;91364.56;5064076;28;20114;-91
2021/10/09 13:23:08;;;;;;;5.72;3.67;;;;;;;13.48;44.83;91356.59;5095101;28;20024;-91
2021/10/09 13:25:33;;;;;;;8.98;3.42;;;;;;;13.75;44.91;91355.06;5079777;28;20397;-92